sensor_id;sensor_type;location;lat;lon;timestamp;P1;durP1;ratioP1;P2;durP2;ratioP2
7169;SDS011;3626;42.656;23.312;2022-11-18T00:00:06;30.52;;;16.42;;
7169;SDS011;3626;42.656;23.312;2022-11-18T00:00:13;32.47;;;16.63;;
7169;SDS011;3626;42.656;23.312;2022-11-18T00:00:19;32.37;;;16.53;;
7169;SDS011;3626;42.656;23.312;2022-11-18T00:00:25;32.13;;;16.60;;
7169;SDS011;3626;42.656;23.312;2022-11-18T00:00:31;32.50;;;16.75;;
7169;SDS011;3626;42.656;23.312;2022-11-18T00:00:36;33.35;;;16.92;;
7169;SDS011;3626;42.656;23.312;2022-11-18T00:00:42;32.77;;;16.70;;
7169;SDS011;3626;42.656;23.312;2022-11-18T00:00:48;32.50;;;16.80;;
7169;SDS011;3626;42.656;23.312;2022-11-18T00:00:54;32.05;;;16.83;;
7169;SDS011;3626;42.656;23.312;2022-11-18T00:01:04;31.08;;;16.54;;
7169;SDS011;3626;42.656;23.312;2022-11-18T00:01:12;29.75;;;16.01;;
7169;SDS011;3626;42.656;23.312;2022-11-18T00:01:19;29.14;;;16.00;;
7169;SDS011;3626;42.656;23.312;2022-11-18T00:01:26;30.17;;;16.20;;
7169;SDS011;3626;42.656;23.312;2022-11-18T00:01:31;30.77;;;16.10;;
7169;SDS011;3626;42.656;23.312;2022-11-18T00:01:37;31.10;;;16.15;;
7169;SDS011;3626;42.656;23.312;2022-11-18T00:01:43;30.90;;;16.07;;
7169;SDS011;3626;42.656;23.312;2022-11-18T00:01:49;30.92;;;16.00;;
7169;SDS011;3626;42.656;23.312;2022-11-18T00:01:55;30.85;;;16.02;;
7169;SDS011;3626;42.656;23.312;2022-11-18T00:02:00;31.95;;;16.55;;
7169;SDS011;3626;42.656;23.312;2022-11-18T00:02:06;33.10;;;16.93;;
7169;SDS011;3626;42.656;23.312;2022-11-18T00:02:12;33.17;;;16.92;;
7169;SDS011;3626;42.656;23.312;2022-11-18T00:02:17;32.35;;;16.65;;
7169;SDS011;3626;42.656;23.312;2022-11-18T00:02:24;32.03;;;16.63;;
7169;SDS011;3626;42.656;23.312;2022-11-18T00:02:30;30.20;;;16.42;;
7169;SDS011;3626;42.656;23.312;2022-11-18T00:02:35;29.85;;;16.23;;
7169;SDS011;3626;42.656;23.312;2022-11-18T00:02:41;30.00;;;16.17;;
7169;SDS011;3626;42.656;23.312;2022-11-18T00:02:47;29.10;;;16.00;;
7169;SDS011;3626;42.656;23.312;2022-11-18T00:02:52;30.20;;;16.17;;
7169;SDS011;3626;42.656;23.312;2022-11-18T00:02:58;29.73;;;15.93;;
7169;SDS011;3626;42.656;23.312;2022-11-18T00:03:04;29.40;;;15.82;;
7169;SDS011;3626;42.656;23.312;2022-11-18T00:03:09;29.00;;;15.68;;
7169;SDS011;3626;42.656;23.312;2022-11-18T00:03:15;29.30;;;15.40;;
7169;SDS011;3626;42.656;23.312;2022-11-18T00:03:21;29.70;;;15.30;;
7169;SDS011;3626;42.656;23.312;2022-11-18T00:03:27;31.05;;;15.55;;
7169;SDS011;3626;42.656;23.312;2022-11-18T00:03:33;31.77;;;16.00;;
7169;SDS011;3626;42.656;23.312;2022-11-18T00:03:39;32.42;;;16.13;;
7169;SDS011;3626;42.656;23.312;2022-11-18T00:03:45;34.07;;;16.60;;
7169;SDS011;3626;42.656;23.312;2022-11-18T00:03:53;33.74;;;16.60;;
7169;SDS011;3626;42.656;23.312;2022-11-18T00:03:58;34.88;;;16.77;;
7169;SDS011;3626;42.656;23.312;2022-11-18T00:04:04;35.83;;;16.80;;
7169;SDS011;3626;42.656;23.312;2022-11-18T00:04:10;36.83;;;16.63;;
7169;SDS011;3626;42.656;23.312;2022-11-18T00:04:16;36.55;;;16.60;;
7169;SDS011;3626;42.656;23.312;2022-11-18T00:04:21;37.72;;;16.85;;
7169;SDS011;3626;42.656;23.312;2022-11-18T00:04:27;37.80;;;16.67;;
7169;SDS011;3626;42.656;23.312;2022-11-18T00:04:33;37.30;;;16.47;;
7169;SDS011;3626;42.656;23.312;2022-11-18T00:04:38;36.65;;;16.20;;
7169;SDS011;3626;42.656;23.312;2022-11-18T00:04:44;36.28;;;16.02;;
7169;SDS011;3626;42.656;23.312;2022-11-18T00:04:50;36.27;;;16.10;;
7169;SDS011;3626;42.656;23.312;2022-11-18T00:04:55;36.13;;;16.17;;
7169;SDS011;3626;42.656;23.312;2022-11-18T00:05:01;34.15;;;15.80;;
7169;SDS011;3626;42.656;23.312;2022-11-18T00:05:07;32.90;;;15.80;;
7169;SDS011;3626;42.656;23.312;2022-11-18T00:05:14;32.03;;;15.90;;
7169;SDS011;3626;42.656;23.312;2022-11-18T00:05:20;31.98;;;15.80;;
7169;SDS011;3626;42.656;23.312;2022-11-18T00:05:25;30.80;;;15.75;;
7169;SDS011;3626;42.656;23.312;2022-11-18T00:05:31;31.83;;;15.88;;
7169;SDS011;3626;42.656;23.312;2022-11-18T00:05:37;32.97;;;16.03;;
7169;SDS011;3626;42.656;23.312;2022-11-18T00:05:43;33.20;;;16.20;;
7169;SDS011;3626;42.656;23.312;2022-11-18T00:05:57;34.20;;;16.15;;
7169;SDS011;3626;42.656;23.312;2022-11-18T00:06:02;34.45;;;16.27;;
7169;SDS011;3626;42.656;23.312;2022-11-18T00:06:10;35.04;;;16.46;;
7169;SDS011;3626;42.656;23.312;2022-11-18T00:06:17;35.02;;;16.40;;
7169;SDS011;3626;42.656;23.312;2022-11-18T00:06:25;33.90;;;16.35;;
7169;SDS011;3626;42.656;23.312;2022-11-18T00:06:32;32.44;;;16.06;;
7169;SDS011;3626;42.656;23.312;2022-11-18T00:06:38;30.98;;;16.00;;
7169;SDS011;3626;42.656;23.312;2022-11-18T00:06:44;30.13;;;15.95;;
7169;SDS011;3626;42.656;23.312;2022-11-18T00:06:50;28.90;;;15.90;;
7169;SDS011;3626;42.656;23.312;2022-11-18T00:06:55;28.52;;;15.73;;
7169;SDS011;3626;42.656;23.312;2022-11-18T00:07:01;28.65;;;15.73;;
7169;SDS011;3626;42.656;23.312;2022-11-18T00:07:07;28.50;;;15.73;;
7169;SDS011;3626;42.656;23.312;2022-11-18T00:07:13;27.93;;;15.67;;
7169;SDS011;3626;42.656;23.312;2022-11-18T00:07:18;28.17;;;15.90;;
7169;SDS011;3626;42.656;23.312;2022-11-18T00:07:25;28.20;;;16.10;;
7169;SDS011;3626;42.656;23.312;2022-11-18T00:07:31;28.88;;;16.25;;
7169;SDS011;3626;42.656;23.312;2022-11-18T00:07:36;29.13;;;16.35;;
7169;SDS011;3626;42.656;23.312;2022-11-18T00:07:43;28.88;;;16.30;;
7169;SDS011;3626;42.656;23.312;2022-11-18T00:07:49;29.40;;;16.08;;
7169;SDS011;3626;42.656;23.312;2022-11-18T00:07:55;29.50;;;15.93;;
7169;SDS011;3626;42.656;23.312;2022-11-18T00:08:00;30.90;;;16.10;;
7169;SDS011;3626;42.656;23.312;2022-11-18T00:08:06;30.45;;;15.95;;
7169;SDS011;3626;42.656;23.312;2022-11-18T00:08:12;30.25;;;15.82;;
7169;SDS011;3626;42.656;23.312;2022-11-18T00:08:18;30.13;;;15.70;;
7169;SDS011;3626;42.656;23.312;2022-11-18T00:08:24;30.45;;;15.77;;
7169;SDS011;3626;42.656;23.312;2022-11-18T00:08:32;29.83;;;15.70;;
7169;SDS011;3626;42.656;23.312;2022-11-18T00:08:38;29.84;;;15.76;;
7169;SDS011;3626;42.656;23.312;2022-11-18T00:08:44;30.13;;;15.83;;
7169;SDS011;3626;42.656;23.312;2022-11-18T00:08:50;29.38;;;15.98;;
7169;SDS011;3626;42.656;23.312;2022-11-18T00:08:57;29.23;;;15.90;;
7169;SDS011;3626;42.656;23.312;2022-11-18T00:09:04;28.67;;;15.93;;
7169;SDS011;3626;42.656;23.312;2022-11-18T00:09:10;28.98;;;16.20;;
7169;SDS011;3626;42.656;23.312;2022-11-18T00:09:15;29.47;;;16.40;;
7169;SDS011;3626;42.656;23.312;2022-11-18T00:09:21;29.95;;;16.30;;
7169;SDS011;3626;42.656;23.312;2022-11-18T00:09:27;30.63;;;16.45;;
7169;SDS011;3626;42.656;23.312;2022-11-18T00:09:33;30.40;;;16.43;;
7169;SDS011;3626;42.656;23.312;2022-11-18T00:09:38;29.77;;;16.02;;
7169;SDS011;3626;42.656;23.312;2022-11-18T00:09:44;29.83;;;16.00;;
7169;SDS011;3626;42.656;23.312;2022-11-18T00:09:51;30.70;;;16.10;;
7169;SDS011;3626;42.656;23.312;2022-11-18T00:09:56;30.17;;;16.05;;
7169;SDS011;3626;42.656;23.312;2022-11-18T00:10:02;31.65;;;16.27;;
7169;SDS011;3626;42.656;23.312;2022-11-18T00:10:08;32.53;;;16.23;;
7169;SDS011;3626;42.656;23.312;2022-11-18T00:10:14;32.83;;;16.20;;
7169;SDS011;3626;42.656;23.312;2022-11-18T00:10:20;32.58;;;16.30;;
7169;SDS011;3626;42.656;23.312;2022-11-18T00:10:26;31.73;;;16.08;;
7169;SDS011;3626;42.656;23.312;2022-11-18T00:10:31;32.57;;;16.30;;
7169;SDS011;3626;42.656;23.312;2022-11-18T00:10:37;32.90;;;16.50;;
7169;SDS011;3626;42.656;23.312;2022-11-18T00:10:43;32.78;;;16.83;;
7169;SDS011;3626;42.656;23.312;2022-11-18T00:10:49;32.30;;;17.08;;
7169;SDS011;3626;42.656;23.312;2022-11-18T00:10:54;32.70;;;17.30;;
7169;SDS011;3626;42.656;23.312;2022-11-18T00:11:03;32.13;;;17.25;;
7169;SDS011;3626;42.656;23.312;2022-11-18T00:11:10;30.43;;;17.07;;
7169;SDS011;3626;42.656;23.312;2022-11-18T00:11:37;29.89;;;17.21;;
7169;SDS011;3626;42.656;23.312;2022-11-18T00:12:01;32.58;;;17.56;;
7169;SDS011;3626;42.656;23.312;2022-11-18T00:12:25;33.53;;;17.64;;
7169;SDS011;3626;42.656;23.312;2022-11-18T00:12:49;32.50;;;16.95;;
7169;SDS011;3626;42.656;23.312;2022-11-18T00:13:14;29.08;;;16.19;;
7169;SDS011;3626;42.656;23.312;2022-11-18T00:13:38;28.27;;;16.19;;
7169;SDS011;3626;42.656;23.312;2022-11-18T00:14:02;30.20;;;16.39;;
7169;SDS011;3626;42.656;23.312;2022-11-18T00:14:24;31.83;;;16.25;;
7169;SDS011;3626;42.656;23.312;2022-11-18T00:14:31;32.34;;;16.16;;
7169;SDS011;3626;42.656;23.312;2022-11-18T00:14:37;32.27;;;16.00;;
7169;SDS011;3626;42.656;23.312;2022-11-18T00:14:43;32.45;;;16.23;;
7169;SDS011;3626;42.656;23.312;2022-11-18T00:14:48;31.80;;;16.15;;
7169;SDS011;3626;42.656;23.312;2022-11-18T00:14:54;31.05;;;16.02;;
7169;SDS011;3626;42.656;23.312;2022-11-18T00:15:00;30.50;;;16.07;;
7169;SDS011;3626;42.656;23.312;2022-11-18T00:15:06;30.55;;;16.35;;
7169;SDS011;3626;42.656;23.312;2022-11-18T00:15:12;30.13;;;16.27;;
7169;SDS011;3626;42.656;23.312;2022-11-18T00:15:17;29.08;;;16.00;;
7169;SDS011;3626;42.656;23.312;2022-11-18T00:15:23;29.30;;;16.20;;
7169;SDS011;3626;42.656;23.312;2022-11-18T00:15:29;28.83;;;16.20;;
7169;SDS011;3626;42.656;23.312;2022-11-18T00:15:34;29.10;;;16.23;;
7169;SDS011;3626;42.656;23.312;2022-11-18T00:15:40;28.03;;;16.03;;
7169;SDS011;3626;42.656;23.312;2022-11-18T00:15:46;27.75;;;15.75;;
7169;SDS011;3626;42.656;23.312;2022-11-18T00:15:58;28.33;;;15.93;;
7169;SDS011;3626;42.656;23.312;2022-11-18T00:16:06;28.36;;;16.01;;
7169;SDS011;3626;42.656;23.312;2022-11-18T00:16:13;29.50;;;15.87;;
7169;SDS011;3626;42.656;23.312;2022-11-18T00:16:18;29.75;;;15.93;;
7169;SDS011;3626;42.656;23.312;2022-11-18T00:16:24;29.65;;;15.90;;
7169;SDS011;3626;42.656;23.312;2022-11-18T00:16:31;29.70;;;15.70;;
7169;SDS011;3626;42.656;23.312;2022-11-18T00:16:36;29.33;;;15.73;;
7169;SDS011;3626;42.656;23.312;2022-11-18T00:16:42;29.83;;;15.90;;
7169;SDS011;3626;42.656;23.312;2022-11-18T00:16:49;29.80;;;15.90;;
7169;SDS011;3626;42.656;23.312;2022-11-18T00:16:57;29.03;;;15.47;;
7169;SDS011;3626;42.656;23.312;2022-11-18T00:17:05;29.84;;;15.40;;
7169;SDS011;3626;42.656;23.312;2022-11-18T00:17:11;30.47;;;15.73;;
7169;SDS011;3626;42.656;23.312;2022-11-18T00:17:17;31.07;;;15.80;;
7169;SDS011;3626;42.656;23.312;2022-11-18T00:17:22;30.75;;;15.57;;
7169;SDS011;3626;42.656;23.312;2022-11-18T00:17:30;30.36;;;15.50;;
7169;SDS011;3626;42.656;23.312;2022-11-18T00:17:36;29.63;;;15.23;;
7169;SDS011;3626;42.656;23.312;2022-11-18T00:17:42;28.95;;;15.15;;
7169;SDS011;3626;42.656;23.312;2022-11-18T00:17:48;28.07;;;14.90;;
7169;SDS011;3626;42.656;23.312;2022-11-18T00:17:53;28.05;;;14.77;;
7169;SDS011;3626;42.656;23.312;2022-11-18T00:17:59;27.75;;;14.75;;
7169;SDS011;3626;42.656;23.312;2022-11-18T00:18:05;27.50;;;14.77;;
7169;SDS011;3626;42.656;23.312;2022-11-18T00:18:10;26.00;;;14.32;;
7169;SDS011;3626;42.656;23.312;2022-11-18T00:18:16;24.58;;;13.90;;
7169;SDS011;3626;42.656;23.312;2022-11-18T00:18:22;24.03;;;13.90;;
7169;SDS011;3626;42.656;23.312;2022-11-18T00:18:27;24.70;;;13.90;;
7169;SDS011;3626;42.656;23.312;2022-11-18T00:18:33;24.45;;;14.00;;
7169;SDS011;3626;42.656;23.312;2022-11-18T00:18:40;24.60;;;14.02;;
7169;SDS011;3626;42.656;23.312;2022-11-18T00:18:45;24.98;;;14.20;;
7169;SDS011;3626;42.656;23.312;2022-11-18T00:18:51;25.50;;;14.35;;
7169;SDS011;3626;42.656;23.312;2022-11-18T00:18:57;25.60;;;14.30;;
7169;SDS011;3626;42.656;23.312;2022-11-18T00:19:03;24.96;;;14.08;;
7169;SDS011;3626;42.656;23.312;2022-11-18T00:19:09;24.73;;;14.20;;
7169;SDS011;3626;42.656;23.312;2022-11-18T00:19:15;24.73;;;14.30;;
7169;SDS011;3626;42.656;23.312;2022-11-18T00:19:22;25.76;;;14.50;;
7169;SDS011;3626;42.656;23.312;2022-11-18T00:19:31;25.50;;;14.53;;
7169;SDS011;3626;42.656;23.312;2022-11-18T00:19:38;25.20;;;14.45;;
7169;SDS011;3626;42.656;23.312;2022-11-18T00:19:44;25.20;;;14.66;;
7169;SDS011;3626;42.656;23.312;2022-11-18T00:19:50;25.83;;;15.07;;
7169;SDS011;3626;42.656;23.312;2022-11-18T00:19:55;26.27;;;15.30;;
7169;SDS011;3626;42.656;23.312;2022-11-18T00:20:01;27.35;;;15.60;;
7169;SDS011;3626;42.656;23.312;2022-11-18T00:20:07;28.27;;;15.68;;
7169;SDS011;3626;42.656;23.312;2022-11-18T00:20:13;29.45;;;15.82;;
7169;SDS011;3626;42.656;23.312;2022-11-18T00:20:20;29.53;;;16.07;;
7169;SDS011;3626;42.656;23.312;2022-11-18T00:20:26;30.30;;;16.50;;
7169;SDS011;3626;42.656;23.312;2022-11-18T00:20:32;30.53;;;16.67;;
7169;SDS011;3626;42.656;23.312;2022-11-18T00:20:37;31.58;;;16.92;;
7169;SDS011;3626;42.656;23.312;2022-11-18T00:20:43;32.58;;;17.00;;
7169;SDS011;3626;42.656;23.312;2022-11-18T00:20:49;32.38;;;16.80;;
7169;SDS011;3626;42.656;23.312;2022-11-18T00:20:54;32.37;;;16.97;;
7169;SDS011;3626;42.656;23.312;2022-11-18T00:21:05;32.70;;;17.08;;
7169;SDS011;3626;42.656;23.312;2022-11-18T00:21:12;32.47;;;17.50;;
7169;SDS011;3626;42.656;23.312;2022-11-18T00:21:17;32.90;;;17.60;;
7169;SDS011;3626;42.656;23.312;2022-11-18T00:21:23;33.92;;;17.70;;
7169;SDS011;3626;42.656;23.312;2022-11-18T00:21:29;36.15;;;17.85;;
7169;SDS011;3626;42.656;23.312;2022-11-18T00:21:34;37.13;;;18.00;;
7169;SDS011;3626;42.656;23.312;2022-11-18T00:21:40;36.92;;;18.15;;
7169;SDS011;3626;42.656;23.312;2022-11-18T00:21:46;38.45;;;18.30;;
7169;SDS011;3626;42.656;23.312;2022-11-18T00:21:52;38.60;;;18.23;;
7169;SDS011;3626;42.656;23.312;2022-11-18T00:21:59;38.30;;;17.97;;
7169;SDS011;3626;42.656;23.312;2022-11-18T00:22:06;39.03;;;18.17;;
7169;SDS011;3626;42.656;23.312;2022-11-18T00:22:15;38.20;;;17.94;;
7169;SDS011;3626;42.656;23.312;2022-11-18T00:22:21;37.67;;;17.98;;
7169;SDS011;3626;42.656;23.312;2022-11-18T00:22:27;34.97;;;17.55;;
7169;SDS011;3626;42.656;23.312;2022-11-18T00:22:32;33.50;;;17.40;;
7169;SDS011;3626;42.656;23.312;2022-11-18T00:22:38;34.67;;;17.58;;
7169;SDS011;3626;42.656;23.312;2022-11-18T00:22:46;34.05;;;17.42;;
7169;SDS011;3626;42.656;23.312;2022-11-18T00:22:51;33.78;;;17.50;;
7169;SDS011;3626;42.656;23.312;2022-11-18T00:22:57;35.08;;;17.65;;
7169;SDS011;3626;42.656;23.312;2022-11-18T00:23:03;34.22;;;17.42;;
7169;SDS011;3626;42.656;23.312;2022-11-18T00:23:08;34.00;;;17.20;;
7169;SDS011;3626;42.656;23.312;2022-11-18T00:23:14;33.15;;;17.05;;
7169;SDS011;3626;42.656;23.312;2022-11-18T00:23:20;33.35;;;17.20;;
7169;SDS011;3626;42.656;23.312;2022-11-18T00:23:25;34.08;;;17.65;;
7169;SDS011;3626;42.656;23.312;2022-11-18T00:23:31;34.27;;;17.80;;
7169;SDS011;3626;42.656;23.312;2022-11-18T00:23:38;32.70;;;17.77;;
7169;SDS011;3626;42.656;23.312;2022-11-18T00:23:44;31.65;;;17.55;;
7169;SDS011;3626;42.656;23.312;2022-11-18T00:23:52;30.90;;;17.47;;
7169;SDS011;3626;42.656;23.312;2022-11-18T00:23:58;29.42;;;17.60;;
7169;SDS011;3626;42.656;23.312;2022-11-18T00:24:04;29.48;;;17.90;;
7169;SDS011;3626;42.656;23.312;2022-11-18T00:24:10;30.67;;;18.33;;
7169;SDS011;3626;42.656;23.312;2022-11-18T00:24:15;30.55;;;18.15;;
7169;SDS011;3626;42.656;23.312;2022-11-18T00:24:21;29.27;;;17.47;;
7169;SDS011;3626;42.656;23.312;2022-11-18T00:24:27;29.32;;;17.26;;
7169;SDS011;3626;42.656;23.312;2022-11-18T00:24:33;28.90;;;17.02;;
7169;SDS011;3626;42.656;23.312;2022-11-18T00:24:40;27.97;;;16.50;;
7169;SDS011;3626;42.656;23.312;2022-11-18T00:24:46;27.95;;;16.42;;
7169;SDS011;3626;42.656;23.312;2022-11-18T00:24:51;27.70;;;16.33;;
7169;SDS011;3626;42.656;23.312;2022-11-18T00:24:57;27.27;;;16.07;;
7169;SDS011;3626;42.656;23.312;2022-11-18T00:25:03;27.23;;;15.70;;
7169;SDS011;3626;42.656;23.312;2022-11-18T00:25:09;26.52;;;15.43;;
7169;SDS011;3626;42.656;23.312;2022-11-18T00:25:15;26.50;;;15.45;;
7169;SDS011;3626;42.656;23.312;2022-11-18T00:25:20;26.40;;;15.63;;
7169;SDS011;3626;42.656;23.312;2022-11-18T00:25:26;26.10;;;15.63;;
7169;SDS011;3626;42.656;23.312;2022-11-18T00:25:32;25.88;;;15.70;;
7169;SDS011;3626;42.656;23.312;2022-11-18T00:25:38;26.10;;;15.80;;
7169;SDS011;3626;42.656;23.312;2022-11-18T00:25:44;26.25;;;15.93;;
7169;SDS011;3626;42.656;23.312;2022-11-18T00:25:49;26.65;;;16.00;;
7169;SDS011;3626;42.656;23.312;2022-11-18T00:26:00;26.90;;;15.90;;
7169;SDS011;3626;42.656;23.312;2022-11-18T00:26:07;26.78;;;16.10;;
7169;SDS011;3626;42.656;23.312;2022-11-18T00:26:14;27.51;;;16.20;;
7169;SDS011;3626;42.656;23.312;2022-11-18T00:26:20;28.08;;;16.27;;
7169;SDS011;3626;42.656;23.312;2022-11-18T00:26:26;27.90;;;16.27;;
7169;SDS011;3626;42.656;23.312;2022-11-18T00:26:32;27.95;;;16.17;;
7169;SDS011;3626;42.656;23.312;2022-11-18T00:26:37;28.92;;;16.25;;
7169;SDS011;3626;42.656;23.312;2022-11-18T00:26:43;30.10;;;16.40;;
7169;SDS011;3626;42.656;23.312;2022-11-18T00:26:49;30.23;;;16.40;;
7169;SDS011;3626;42.656;23.312;2022-11-18T00:26:55;30.85;;;16.63;;
7169;SDS011;3626;42.656;23.312;2022-11-18T00:27:00;31.45;;;16.80;;
7169;SDS011;3626;42.656;23.312;2022-11-18T00:27:06;31.35;;;16.88;;
7169;SDS011;3626;42.656;23.312;2022-11-18T00:27:12;30.60;;;16.87;;
7169;SDS011;3626;42.656;23.312;2022-11-18T00:27:17;29.77;;;16.75;;
7169;SDS011;3626;42.656;23.312;2022-11-18T00:27:23;30.67;;;16.92;;
7169;SDS011;3626;42.656;23.312;2022-11-18T00:27:29;31.27;;;17.33;;
7169;SDS011;3626;42.656;23.312;2022-11-18T00:27:36;31.24;;;17.48;;
7169;SDS011;3626;42.656;23.312;2022-11-18T00:27:41;30.55;;;17.70;;
7169;SDS011;3626;42.656;23.312;2022-11-18T00:27:47;30.55;;;17.95;;
7169;SDS011;3626;42.656;23.312;2022-11-18T00:27:53;32.67;;;18.27;;
7169;SDS011;3626;42.656;23.312;2022-11-18T00:27:58;32.38;;;18.20;;
7169;SDS011;3626;42.656;23.312;2022-11-18T00:28:04;32.95;;;18.20;;
7169;SDS011;3626;42.656;23.312;2022-11-18T00:28:10;34.37;;;18.20;;
7169;SDS011;3626;42.656;23.312;2022-11-18T00:28:15;35.67;;;18.35;;
7169;SDS011;3626;42.656;23.312;2022-11-18T00:28:21;36.17;;;18.60;;
7169;SDS011;3626;42.656;23.312;2022-11-18T00:28:27;36.77;;;18.60;;
7169;SDS011;3626;42.656;23.312;2022-11-18T00:28:32;36.58;;;18.38;;
7169;SDS011;3626;42.656;23.312;2022-11-18T00:28:39;36.43;;;18.33;;
7169;SDS011;3626;42.656;23.312;2022-11-18T00:28:45;37.22;;;18.56;;
7169;SDS011;3626;42.656;23.312;2022-11-18T00:28:51;36.20;;;18.35;;
7169;SDS011;3626;42.656;23.312;2022-11-18T00:28:57;36.17;;;18.47;;
7169;SDS011;3626;42.656;23.312;2022-11-18T00:29:02;37.38;;;18.67;;
7169;SDS011;3626;42.656;23.312;2022-11-18T00:29:08;37.50;;;18.92;;
7169;SDS011;3626;42.656;23.312;2022-11-18T00:29:16;37.22;;;19.04;;
7169;SDS011;3626;42.656;23.312;2022-11-18T00:29:22;36.45;;;18.92;;
7169;SDS011;3626;42.656;23.312;2022-11-18T00:29:30;37.00;;;19.14;;
7169;SDS011;3626;42.656;23.312;2022-11-18T00:29:36;36.25;;;18.65;;
7169;SDS011;3626;42.656;23.312;2022-11-18T00:29:42;35.83;;;18.55;;
7169;SDS011;3626;42.656;23.312;2022-11-18T00:29:47;35.07;;;18.30;;
7169;SDS011;3626;42.656;23.312;2022-11-18T00:29:53;35.15;;;18.63;;
7169;SDS011;3626;42.656;23.312;2022-11-18T00:29:59;35.50;;;18.55;;
7169;SDS011;3626;42.656;23.312;2022-11-18T00:30:05;34.17;;;18.50;;
7169;SDS011;3626;42.656;23.312;2022-11-18T00:30:12;34.58;;;18.64;;
7169;SDS011;3626;42.656;23.312;2022-11-18T00:30:17;34.58;;;18.60;;
7169;SDS011;3626;42.656;23.312;2022-11-18T00:30:23;34.25;;;18.60;;
7169;SDS011;3626;42.656;23.312;2022-11-18T00:30:29;33.40;;;18.60;;
7169;SDS011;3626;42.656;23.312;2022-11-18T00:30:35;34.47;;;19.17;;
7169;SDS011;3626;42.656;23.312;2022-11-18T00:30:40;35.40;;;19.35;;
7169;SDS011;3626;42.656;23.312;2022-11-18T00:30:46;35.13;;;19.17;;
7169;SDS011;3626;42.656;23.312;2022-11-18T00:30:52;34.20;;;18.90;;
7169;SDS011;3626;42.656;23.312;2022-11-18T00:31:02;33.38;;;18.72;;
7169;SDS011;3626;42.656;23.312;2022-11-18T00:31:10;32.99;;;18.81;;
7169;SDS011;3626;42.656;23.312;2022-11-18T00:31:17;33.00;;;18.77;;
7169;SDS011;3626;42.656;23.312;2022-11-18T00:31:23;32.85;;;18.55;;
7169;SDS011;3626;42.656;23.312;2022-11-18T00:31:29;33.25;;;18.67;;
7169;SDS011;3626;42.656;23.312;2022-11-18T00:31:34;33.37;;;18.57;;
7169;SDS011;3626;42.656;23.312;2022-11-18T00:31:40;33.10;;;18.70;;
7169;SDS011;3626;42.656;23.312;2022-11-18T00:31:46;35.20;;;19.38;;
7169;SDS011;3626;42.656;23.312;2022-11-18T00:31:53;36.10;;;19.50;;
7169;SDS011;3626;42.656;23.312;2022-11-18T00:31:58;35.67;;;19.50;;
7169;SDS011;3626;42.656;23.312;2022-11-18T00:32:04;35.95;;;19.30;;
7169;SDS011;3626;42.656;23.312;2022-11-18T00:32:10;35.65;;;19.30;;
7169;SDS011;3626;42.656;23.312;2022-11-18T00:32:17;35.23;;;19.20;;
7169;SDS011;3626;42.656;23.312;2022-11-18T00:32:22;37.03;;;19.33;;
7169;SDS011;3626;42.656;23.312;2022-11-18T00:32:28;36.75;;;19.08;;
7169;SDS011;3626;42.656;23.312;2022-11-18T00:32:34;36.63;;;19.08;;
7169;SDS011;3626;42.656;23.312;2022-11-18T00:32:39;36.40;;;19.00;;
7169;SDS011;3626;42.656;23.312;2022-11-18T00:32:45;35.25;;;18.70;;
7169;SDS011;3626;42.656;23.312;2022-11-18T00:32:51;35.25;;;18.63;;
7169;SDS011;3626;42.656;23.312;2022-11-18T00:32:56;36.05;;;18.80;;
7169;SDS011;3626;42.656;23.312;2022-11-18T00:33:02;35.77;;;18.60;;
7169;SDS011;3626;42.656;23.312;2022-11-18T00:33:08;36.85;;;18.83;;
7169;SDS011;3626;42.656;23.312;2022-11-18T00:33:14;37.42;;;19.10;;
7169;SDS011;3626;42.656;23.312;2022-11-18T00:33:19;36.73;;;19.23;;
7169;SDS011;3626;42.656;23.312;2022-11-18T00:33:25;35.72;;;19.17;;
7169;SDS011;3626;42.656;23.312;2022-11-18T00:33:31;36.65;;;19.20;;
7169;SDS011;3626;42.656;23.312;2022-11-18T00:33:37;36.53;;;19.13;;
7169;SDS011;3626;42.656;23.312;2022-11-18T00:33:43;36.20;;;18.80;;
7169;SDS011;3626;42.656;23.312;2022-11-18T00:33:48;36.15;;;18.80;;
7169;SDS011;3626;42.656;23.312;2022-11-18T00:33:54;35.47;;;18.50;;
7169;SDS011;3626;42.656;23.312;2022-11-18T00:34:00;35.33;;;18.52;;
7169;SDS011;3626;42.656;23.312;2022-11-18T00:34:09;34.92;;;18.44;;
7169;SDS011;3626;42.656;23.312;2022-11-18T00:34:16;35.10;;;18.13;;
7169;SDS011;3626;42.656;23.312;2022-11-18T00:34:23;36.13;;;18.17;;
7169;SDS011;3626;42.656;23.312;2022-11-18T00:34:29;36.17;;;18.40;;
7169;SDS011;3626;42.656;23.312;2022-11-18T00:34:35;35.72;;;18.33;;
7169;SDS011;3626;42.656;23.312;2022-11-18T00:34:40;36.33;;;18.60;;
7169;SDS011;3626;42.656;23.312;2022-11-18T00:34:46;36.64;;;18.90;;
7169;SDS011;3626;42.656;23.312;2022-11-18T00:34:52;36.73;;;19.17;;
7169;SDS011;3626;42.656;23.312;2022-11-18T00:34:58;36.80;;;19.13;;
7169;SDS011;3626;42.656;23.312;2022-11-18T00:35:04;36.67;;;19.15;;
7169;SDS011;3626;42.656;23.312;2022-11-18T00:35:10;35.93;;;19.13;;
7169;SDS011;3626;42.656;23.312;2022-11-18T00:35:16;35.55;;;19.02;;
7169;SDS011;3626;42.656;23.312;2022-11-18T00:35:21;35.50;;;19.10;;
7169;SDS011;3626;42.656;23.312;2022-11-18T00:35:28;34.93;;;18.97;;
7169;SDS011;3626;42.656;23.312;2022-11-18T00:35:34;35.30;;;18.90;;
7169;SDS011;3626;42.656;23.312;2022-11-18T00:35:39;34.83;;;18.92;;
7169;SDS011;3626;42.656;23.312;2022-11-18T00:35:51;35.30;;;19.10;;
7169;SDS011;3626;42.656;23.312;2022-11-18T00:35:58;35.66;;;19.34;;
7169;SDS011;3626;42.656;23.312;2022-11-18T00:36:04;34.63;;;19.30;;
7169;SDS011;3626;42.656;23.312;2022-11-18T00:36:11;35.67;;;19.57;;
7169;SDS011;3626;42.656;23.312;2022-11-18T00:36:17;35.65;;;19.73;;
7169;SDS011;3626;42.656;23.312;2022-11-18T00:36:22;35.67;;;19.70;;
7169;SDS011;3626;42.656;23.312;2022-11-18T00:36:28;35.60;;;19.70;;
7169;SDS011;3626;42.656;23.312;2022-11-18T00:36:34;35.92;;;19.65;;
7169;SDS011;3626;42.656;23.312;2022-11-18T00:36:40;36.00;;;19.43;;
7169;SDS011;3626;42.656;23.312;2022-11-18T00:36:47;35.40;;;19.18;;
7169;SDS011;3626;42.656;23.312;2022-11-18T00:36:53;36.40;;;19.20;;
7169;SDS011;3626;42.656;23.312;2022-11-18T00:36:59;37.23;;;19.23;;
7169;SDS011;3626;42.656;23.312;2022-11-18T00:37:05;37.93;;;19.37;;
7169;SDS011;3626;42.656;23.312;2022-11-18T00:37:11;37.75;;;18.98;;
7169;SDS011;3626;42.656;23.312;2022-11-18T00:37:16;37.47;;;18.95;;
7169;SDS011;3626;42.656;23.312;2022-11-18T00:37:22;37.05;;;19.02;;
7169;SDS011;3626;42.656;23.312;2022-11-18T00:37:28;36.60;;;19.17;;
7169;SDS011;3626;42.656;23.312;2022-11-18T00:37:33;36.53;;;19.40;;
7169;SDS011;3626;42.656;23.312;2022-11-18T00:37:39;36.72;;;19.60;;
7169;SDS011;3626;42.656;23.312;2022-11-18T00:37:46;37.07;;;19.53;;
7169;SDS011;3626;42.656;23.312;2022-11-18T00:37:52;36.90;;;19.50;;
7169;SDS011;3626;42.656;23.312;2022-11-18T00:37:57;37.92;;;19.63;;
7169;SDS011;3626;42.656;23.312;2022-11-18T00:38:03;39.15;;;19.70;;
7169;SDS011;3626;42.656;23.312;2022-11-18T00:38:09;39.13;;;19.80;;
7169;SDS011;3626;42.656;23.312;2022-11-18T00:38:14;38.70;;;19.65;;
7169;SDS011;3626;42.656;23.312;2022-11-18T00:38:20;38.22;;;19.23;;
7169;SDS011;3626;42.656;23.312;2022-11-18T00:38:26;38.13;;;19.13;;
7169;SDS011;3626;42.656;23.312;2022-11-18T00:38:34;37.18;;;18.50;;
7169;SDS011;3626;42.656;23.312;2022-11-18T00:38:40;37.03;;;18.33;;
7169;SDS011;3626;42.656;23.312;2022-11-18T00:38:46;37.17;;;18.77;;
7169;SDS011;3626;42.656;23.312;2022-11-18T00:38:52;36.83;;;18.73;;